createdAt,value
2023-01-19T00:00:51.955Z,5.80
2023-01-19T00:03:18.793Z,5.35
2023-01-19T00:05:46.045Z,5.28
2023-01-19T00:08:17.389Z,6.78
2023-01-19T00:10:46.761Z,6.55
2023-01-19T00:13:14.892Z,5.53
2023-01-19T00:15:42.032Z,5.10
2023-01-19T00:18:10.707Z,5.70
2023-01-19T00:20:38.257Z,5.57
2023-01-19T00:23:07.578Z,5.22
2023-01-19T00:25:34.377Z,5.35
2023-01-19T00:28:01.866Z,6.35
2023-01-19T00:30:29.506Z,7.28
2023-01-19T00:32:56.494Z,6.47
2023-01-19T00:35:23.298Z,5.35
2023-01-19T00:37:50.219Z,6.15
2023-01-19T00:40:17.359Z,5.75
2023-01-19T00:42:44.571Z,5.60
2023-01-19T00:45:16.846Z,6.60
2023-01-19T00:47:43.513Z,5.18
2023-01-19T00:50:11.980Z,5.03
2023-01-19T00:52:42.399Z,5.97
2023-01-19T00:55:11.003Z,5.45
2023-01-19T00:57:38.965Z,5.32
2023-01-19T01:00:07.755Z,6.90
2023-01-19T01:02:34.979Z,5.22
2023-01-19T01:05:02.986Z,4.88
2023-01-19T01:07:30.817Z,6.65
2023-01-19T01:09:57.608Z,5.57
2023-01-19T01:12:24.610Z,6.03
2023-01-19T01:14:51.427Z,6.70
2023-01-19T01:17:24.814Z,6.13
2023-01-19T01:19:52.191Z,6.22
2023-01-19T01:22:19.010Z,5.45
2023-01-19T01:24:45.888Z,5.97
2023-01-19T01:27:13.256Z,5.47
2023-01-19T01:29:41.267Z,6.10
2023-01-19T01:32:08.340Z,6.03
2023-01-19T01:34:35.320Z,5.82
2023-01-19T01:37:02.954Z,5.78
2023-01-19T01:39:32.703Z,5.28
2023-01-19T01:41:59.397Z,5.50
2023-01-19T01:44:49.541Z,5.28
2023-01-19T01:47:25.119Z,5.25
2023-01-19T01:49:59.368Z,6.35
2023-01-19T01:52:32.350Z,5.57
2023-01-19T01:55:00.114Z,5.82
2023-01-19T01:57:27.962Z,5.90
2023-01-19T01:59:57.055Z,5.68
2023-01-19T02:02:46.486Z,6.57
2023-01-19T02:05:37.865Z,5.82
2023-01-19T02:08:31.431Z,5.65
2023-01-19T02:11:17.776Z,5.70
2023-01-19T02:13:46.855Z,6.63
2023-01-19T02:16:15.454Z,5.75
2023-01-19T02:18:43.196Z,6.57
2023-01-19T02:21:12.775Z,6.07
2023-01-19T02:23:47.020Z,6.30
2023-01-19T02:26:24.897Z,6.43
2023-01-19T02:29:08.565Z,5.85
2023-01-19T02:31:37.269Z,6.72
2023-01-19T02:34:05.285Z,6.18
2023-01-19T02:36:50.192Z,6.47
2023-01-19T02:39:22.728Z,6.70
2023-01-19T02:41:54.946Z,7.45
2023-01-19T02:44:24.227Z,6.18
2023-01-19T02:46:54.153Z,6.63
2023-01-19T02:49:20.822Z,6.95
2023-01-19T02:51:47.883Z,7.70
2023-01-19T02:54:41.985Z,8.48
2023-01-19T02:57:23.454Z,6.88
2023-01-19T03:00:15.540Z,8.75
2023-01-19T03:03:07.035Z,8.27
2023-01-19T03:06:08.326Z,8.00
2023-01-19T03:08:54.748Z,7.18
2023-01-19T03:11:26.988Z,8.45
2023-01-19T03:14:00.951Z,7.05
2023-01-19T03:16:50.238Z,6.15
2023-01-19T03:19:31.899Z,8.10
2023-01-19T03:22:02.845Z,7.03
2023-01-19T03:24:35.424Z,8.00
2023-01-19T03:27:11.449Z,8.32
2023-01-19T03:29:42.418Z,8.93
2023-01-19T03:32:14.265Z,8.60
2023-01-19T03:34:43.236Z,8.30
2023-01-19T03:37:11.596Z,7.80
2023-01-19T03:39:38.483Z,8.25
2023-01-19T03:42:08.109Z,7.78
2023-01-19T03:44:37.896Z,7.82
2023-01-19T03:47:09.139Z,9.15
2023-01-19T03:49:37.869Z,8.15
2023-01-19T03:52:05.353Z,7.75
2023-01-19T03:54:32.436Z,7.53
2023-01-19T03:56:59.456Z,7.30
2023-01-19T03:59:26.245Z,8.57
2023-01-19T04:01:53.011Z,8.02
2023-01-19T04:04:19.728Z,7.95
2023-01-19T04:06:46.509Z,7.97
2023-01-19T04:09:16.787Z,7.32
2023-01-19T04:11:44.288Z,7.22
2023-01-19T04:14:11.119Z,8.07
2023-01-19T04:16:37.842Z,8.05
2023-01-19T04:19:04.607Z,7.40
2023-01-19T04:21:31.313Z,8.02
2023-01-19T04:23:58.974Z,7.85
2023-01-19T04:26:25.732Z,9.30
2023-01-19T04:28:52.511Z,9.23
2023-01-19T04:31:19.452Z,7.68
2023-01-19T04:33:46.323Z,8.82
2023-01-19T04:36:13.033Z,8.98
2023-01-19T04:38:39.813Z,8.73
2023-01-19T04:41:06.478Z,8.05
2023-01-19T04:43:33.847Z,8.50
2023-01-19T04:46:00.660Z,7.68
2023-01-19T04:48:27.353Z,7.93
2023-01-19T04:50:54.059Z,7.85
2023-01-19T04:53:20.906Z,8.40
2023-01-19T04:55:47.784Z,8.65
2023-01-19T04:58:15.775Z,9.48
2023-01-19T05:00:43.284Z,8.15
2023-01-19T05:03:10.035Z,8.23
2023-01-19T05:05:36.797Z,8.23
2023-01-19T05:08:03.616Z,8.50
2023-01-19T05:10:30.297Z,9.52
2023-01-19T05:12:57.597Z,7.68
2023-01-19T05:15:24.328Z,7.13
2023-01-19T05:17:51.087Z,9.40
2023-01-19T05:20:17.974Z,8.95
2023-01-19T05:22:52.488Z,10.15
2023-01-19T05:25:19.660Z,9.35
2023-01-19T05:27:46.826Z,10.13
2023-01-19T05:30:14.227Z,10.00
2023-01-19T05:32:41.245Z,10.95
2023-01-19T05:35:08.390Z,8.98
2023-01-19T05:37:35.184Z,10.40
2023-01-19T05:40:01.913Z,9.50
2023-01-19T05:42:29.095Z,10.02
2023-01-19T05:44:56.617Z,10.00
2023-01-19T05:47:23.367Z,9.73
2023-01-19T05:49:50.070Z,8.65
2023-01-19T05:52:16.884Z,9.48
2023-01-19T05:54:43.850Z,7.68
2023-01-19T05:57:11.766Z,9.20
2023-01-19T05:59:38.540Z,8.63
2023-01-19T06:02:05.376Z,7.75
2023-01-19T06:04:32.434Z,7.78
2023-01-19T06:06:59.225Z,8.35
2023-01-19T06:09:25.910Z,11.60
2023-01-19T06:11:54.253Z,12.68
2023-01-19T06:14:21.136Z,22.50
2023-01-19T06:16:47.984Z,18.85
2023-01-19T06:19:15.126Z,13.60
2023-01-19T06:21:42.020Z,9.70
2023-01-19T06:24:09.914Z,10.60
2023-01-19T06:26:37.464Z,12.63
2023-01-19T06:29:04.291Z,10.68
2023-01-19T06:31:33.406Z,10.35
2023-01-19T06:34:00.200Z,10.93
2023-01-19T06:36:26.948Z,10.50
2023-01-19T06:38:53.853Z,11.32
2023-01-19T06:41:20.733Z,10.40
2023-01-19T06:43:47.510Z,10.10
2023-01-19T06:46:14.437Z,10.30
2023-01-19T06:48:41.273Z,10.27
2023-01-19T06:51:13.143Z,8.60
2023-01-19T06:53:39.951Z,8.23
2023-01-19T06:56:08.088Z,9.15
2023-01-19T06:58:35.008Z,8.75
2023-01-19T07:01:05.570Z,9.40
2023-01-19T07:03:33.191Z,9.52
2023-01-19T07:06:02.349Z,9.02
2023-01-19T07:08:30.111Z,9.13
2023-01-19T07:11:25.005Z,10.45
2023-01-19T07:13:51.566Z,10.07
2023-01-19T07:16:18.819Z,10.65
2023-01-19T07:18:48.083Z,9.98
2023-01-19T07:21:15.440Z,11.55
2023-01-19T07:23:43.313Z,13.93
2023-01-19T07:26:10.545Z,11.38
2023-01-19T07:28:37.341Z,10.38
2023-01-19T07:31:04.350Z,11.52
2023-01-19T07:33:31.207Z,12.00
2023-01-19T07:35:58.382Z,11.20
2023-01-19T07:38:25.325Z,10.52
2023-01-19T07:40:52.047Z,11.68
2023-01-19T07:43:18.739Z,12.52
2023-01-19T07:45:45.536Z,11.80
2023-01-19T07:48:12.333Z,11.88
2023-01-19T07:50:39.032Z,12.50
2023-01-19T07:53:11.668Z,12.13
2023-01-19T07:55:38.346Z,12.77
2023-01-19T07:58:07.327Z,11.60
2023-01-19T08:00:36.364Z,12.05
2023-01-19T08:03:04.724Z,13.00
2023-01-19T08:05:35.500Z,11.98
2023-01-19T08:08:02.264Z,12.35
2023-01-19T08:10:29.667Z,12.98
2023-01-19T08:12:57.787Z,13.18
2023-01-19T08:15:25.159Z,11.05
2023-01-19T08:18:02.758Z,12.93
2023-01-19T08:20:30.003Z,13.07
2023-01-19T08:23:01.282Z,14.85
2023-01-19T08:25:38.791Z,20.27
2023-01-19T08:28:07.205Z,25.30
2023-01-19T08:30:34.061Z,22.33
2023-01-19T08:33:04.461Z,15.90
2023-01-19T08:35:32.053Z,19.25
2023-01-19T08:38:01.527Z,18.30
2023-01-19T08:40:35.878Z,20.27
2023-01-19T08:43:11.409Z,18.85
2023-01-19T08:45:44.839Z,14.95
2023-01-19T08:48:12.358Z,12.20
2023-01-19T08:50:39.923Z,11.85
2023-01-19T08:53:07.133Z,11.77
2023-01-19T08:55:35.687Z,13.07
2023-01-19T08:58:04.759Z,13.13
2023-01-19T09:00:34.277Z,14.20
2023-01-19T09:03:04.122Z,14.50
2023-01-19T09:05:35.537Z,15.82
2023-01-19T09:08:03.822Z,17.17
2023-01-19T09:10:37.971Z,17.15
2023-01-19T09:13:08.216Z,15.35
2023-01-19T09:15:37.531Z,15.73
2023-01-19T09:18:07.140Z,15.48
2023-01-19T09:20:36.204Z,15.88
2023-01-19T09:23:03.080Z,17.65
2023-01-19T09:25:29.946Z,17.95
2023-01-19T09:27:56.744Z,19.73
2023-01-19T09:30:23.484Z,20.67
2023-01-19T09:32:50.327Z,20.45
2023-01-19T09:35:17.217Z,17.67
2023-01-19T09:37:47.727Z,19.25
2023-01-19T09:40:18.698Z,19.52
2023-01-19T09:42:52.561Z,16.33
2023-01-19T09:45:31.208Z,16.65
2023-01-19T09:48:00.216Z,19.60
2023-01-19T09:50:34.058Z,19.20
2023-01-19T09:53:18.856Z,21.45
2023-01-19T09:55:45.713Z,18.70
2023-01-19T09:58:16.393Z,17.70
2023-01-19T10:00:47.939Z,14.05
2023-01-19T10:03:17.000Z,18.45
2023-01-19T10:05:49.088Z,14.70
2023-01-19T10:08:22.951Z,14.70
2023-01-19T10:10:54.285Z,13.93
2023-01-19T10:13:28.812Z,12.77
2023-01-19T10:16:14.591Z,14.63
2023-01-19T10:18:51.577Z,11.27
2023-01-19T10:21:42.073Z,11.40
2023-01-19T10:24:11.730Z,10.45
2023-01-19T10:26:49.601Z,8.18
2023-01-19T10:29:22.475Z,9.63
2023-01-19T10:31:51.761Z,8.55
2023-01-19T10:34:23.652Z,7.20
2023-01-19T10:36:59.445Z,8.30
2023-01-19T10:39:26.406Z,8.48
2023-01-19T10:41:53.858Z,8.90
2023-01-19T10:44:28.653Z,6.95
2023-01-19T10:46:58.775Z,8.50
2023-01-19T10:49:28.637Z,8.18
2023-01-19T10:51:58.678Z,7.95
2023-01-19T10:54:27.673Z,7.18
2023-01-19T10:56:59.305Z,7.28
2023-01-19T10:59:44.536Z,7.55
2023-01-19T11:02:26.362Z,7.63
2023-01-19T11:04:56.115Z,7.63
2023-01-19T11:07:33.582Z,7.75
2023-01-19T11:10:15.588Z,8.27
2023-01-19T11:12:54.077Z,6.85
2023-01-19T11:15:29.095Z,6.03
2023-01-19T11:17:56.235Z,6.93
2023-01-19T11:20:27.773Z,5.97
2023-01-19T11:23:06.359Z,6.50
2023-01-19T11:25:35.685Z,5.97
2023-01-19T11:28:03.280Z,7.63
2023-01-19T11:30:30.602Z,8.35
2023-01-19T11:32:57.665Z,7.13
2023-01-19T11:35:41.358Z,6.65
2023-01-19T11:38:17.161Z,6.57
2023-01-19T11:40:55.471Z,6.68
2023-01-19T11:43:24.414Z,6.10
2023-01-19T11:45:51.884Z,6.97
2023-01-19T11:49:13.938Z,5.90
2023-01-19T11:51:58.339Z,6.30
2023-01-19T11:54:31.748Z,7.30
2023-01-19T11:57:00.376Z,7.38
2023-01-19T11:59:27.172Z,4.78
2023-01-19T12:01:58.337Z,3.75
2023-01-19T12:04:30.276Z,3.05
2023-01-19T12:06:59.654Z,2.38
2023-01-19T12:09:35.032Z,2.40
2023-01-19T12:12:05.031Z,2.10
2023-01-19T12:14:56.277Z,2.78
2023-01-19T12:17:35.357Z,3.15
2023-01-19T12:20:24.666Z,2.90
2023-01-19T12:23:02.931Z,2.90
2023-01-19T12:25:59.648Z,3.05
2023-01-19T12:28:31.156Z,2.65
2023-01-19T12:31:00.337Z,2.55
2023-01-19T12:33:35.001Z,2.58
2023-01-19T12:36:27.695Z,2.55
2023-01-19T12:39:04.835Z,3.75
2023-01-19T12:41:38.979Z,2.90
2023-01-19T12:44:12.061Z,3.60
2023-01-19T12:47:06.359Z,3.88
2023-01-19T12:50:06.783Z,3.00
2023-01-19T12:52:35.225Z,3.30
2023-01-19T12:55:14.038Z,3.10
2023-01-19T12:58:01.045Z,2.42
2023-01-19T13:00:34.022Z,2.65
2023-01-19T13:03:17.905Z,3.42
2023-01-19T13:05:44.705Z,2.90
2023-01-19T13:08:14.079Z,3.00
2023-01-19T13:11:13.740Z,3.08
2023-01-19T13:13:49.322Z,3.80
2023-01-19T13:16:18.853Z,4.18
2023-01-19T13:19:07.617Z,3.00
2023-01-19T13:21:48.476Z,2.92
2023-01-19T13:24:22.670Z,3.08
2023-01-19T13:26:49.404Z,3.08
2023-01-19T13:29:40.819Z,3.45
2023-01-19T13:32:17.587Z,3.45
2023-01-19T13:35:04.178Z,2.97
2023-01-19T13:37:39.285Z,2.90
2023-01-19T13:40:06.908Z,3.08
2023-01-19T13:42:37.926Z,3.35
2023-01-19T13:45:26.801Z,3.60
2023-01-19T13:47:56.703Z,3.60
2023-01-19T13:50:30.227Z,3.30
2023-01-19T13:52:58.964Z,2.80
2023-01-19T13:55:28.205Z,4.03
2023-01-19T13:57:55.515Z,3.00
2023-01-19T14:00:31.315Z,3.15
2023-01-19T14:03:18.614Z,2.63
2023-01-19T14:05:45.593Z,2.65
2023-01-19T14:08:15.224Z,3.05
2023-01-19T14:10:42.029Z,3.67
2023-01-19T14:13:18.434Z,2.92
2023-01-19T14:15:46.490Z,3.35
2023-01-19T14:18:19.362Z,2.40
2023-01-19T14:21:07.559Z,2.58
2023-01-19T14:23:42.337Z,2.60
2023-01-19T14:26:46.014Z,2.47
2023-01-19T14:29:19.317Z,2.90
2023-01-19T14:32:24.478Z,3.05
2023-01-19T14:35:04.264Z,3.00
2023-01-19T14:37:36.547Z,3.05
2023-01-19T14:40:11.008Z,3.63
2023-01-19T14:43:06.106Z,3.70
2023-01-19T14:45:41.390Z,4.00
2023-01-19T14:48:20.448Z,5.20
2023-01-19T14:51:02.400Z,6.45
2023-01-19T14:53:38.401Z,7.68
2023-01-19T14:56:06.775Z,4.05
2023-01-19T14:58:35.428Z,5.72
2023-01-19T15:01:02.379Z,4.75
2023-01-19T15:03:47.735Z,4.97
2023-01-19T15:06:17.425Z,6.07
2023-01-19T15:08:45.097Z,4.50
2023-01-19T15:11:29.020Z,4.57
2023-01-19T15:13:55.773Z,4.13
2023-01-19T15:16:23.748Z,5.80
2023-01-19T15:18:50.583Z,7.50
2023-01-19T15:21:23.586Z,5.30
2023-01-19T15:23:50.646Z,5.50
2023-01-19T15:26:20.753Z,4.60
2023-01-19T15:28:51.142Z,4.32
2023-01-19T15:31:23.665Z,4.53
2023-01-19T15:33:50.660Z,4.40
2023-01-19T15:36:20.389Z,5.15
2023-01-19T15:38:50.153Z,4.50
2023-01-19T15:41:27.882Z,5.30
2023-01-19T15:43:54.743Z,4.78
2023-01-19T15:46:22.837Z,5.10
2023-01-19T15:48:53.309Z,5.70
2023-01-19T15:51:22.213Z,6.05
2023-01-19T15:53:50.214Z,4.50
2023-01-19T15:56:20.378Z,5.28
2023-01-19T15:58:47.393Z,6.70
2023-01-19T16:01:22.833Z,5.03
2023-01-19T16:03:50.665Z,5.20
2023-01-19T16:06:17.959Z,5.80
2023-01-19T16:08:45.082Z,3.90
2023-01-19T16:11:14.964Z,4.00
2023-01-19T16:13:46.245Z,4.15
2023-01-19T16:16:18.975Z,4.75
2023-01-19T16:18:46.272Z,5.45
2023-01-19T16:21:13.061Z,8.32
2023-01-19T16:23:40.133Z,8.10
2023-01-19T16:26:22.476Z,15.27
2023-01-19T16:28:49.262Z,7.13
2023-01-19T16:31:16.549Z,8.70
2023-01-19T16:33:45.211Z,6.43
2023-01-19T16:36:43.008Z,5.65
2023-01-19T16:39:12.727Z,7.20
2023-01-19T16:41:40.927Z,5.13
2023-01-19T16:44:08.241Z,6.63
2023-01-19T16:46:37.650Z,8.32
2023-01-19T16:49:06.603Z,10.48
2023-01-19T16:51:33.805Z,12.23
2023-01-19T16:54:00.605Z,9.60
2023-01-19T16:56:27.631Z,5.57
2023-01-19T16:58:55.842Z,5.20
2023-01-19T17:01:24.190Z,8.85
2023-01-19T17:03:51.280Z,12.68
2023-01-19T17:06:22.671Z,39.47
2023-01-19T17:08:50.667Z,32.05
2023-01-19T17:11:22.730Z,16.67
2023-01-19T17:14:12.933Z,9.65
2023-01-19T17:16:40.052Z,22.75
2023-01-19T17:19:07.964Z,11.13
2023-01-19T17:21:35.557Z,5.03
2023-01-19T17:24:02.227Z,6.40
2023-01-19T17:26:30.954Z,7.88
2023-01-19T17:29:02.240Z,6.20
2023-01-19T17:31:30.589Z,5.53
2023-01-19T17:33:58.069Z,5.97
2023-01-19T17:36:27.588Z,5.93
2023-01-19T17:38:57.195Z,6.88
2023-01-19T17:41:29.469Z,6.85
2023-01-19T17:43:57.061Z,6.05
2023-01-19T17:46:25.859Z,5.05
2023-01-19T17:48:58.081Z,5.45
2023-01-19T17:51:25.893Z,6.32
2023-01-19T17:53:53.842Z,8.73
2023-01-19T17:56:25.864Z,8.45
2023-01-19T17:58:52.640Z,7.50
2023-01-19T18:01:22.106Z,7.05
2023-01-19T18:03:49.179Z,6.88
2023-01-19T18:06:16.428Z,7.10
2023-01-19T18:08:46.112Z,5.43
2023-01-19T18:11:14.078Z,5.60
2023-01-19T18:13:43.728Z,5.55
2023-01-19T18:16:12.982Z,5.88
2023-01-19T18:18:40.605Z,5.30
2023-01-19T18:21:10.708Z,5.18
2023-01-19T18:23:37.973Z,4.72
2023-01-19T18:26:11.035Z,4.75
2023-01-19T18:28:37.994Z,4.75
2023-01-19T18:31:09.308Z,5.13
2023-01-19T18:33:36.535Z,5.38
2023-01-19T18:36:03.481Z,3.80
2023-01-19T18:38:30.256Z,4.45
2023-01-19T18:41:18.168Z,5.45
2023-01-19T18:43:45.169Z,4.53
2023-01-19T18:46:12.119Z,4.78
2023-01-19T18:48:39.556Z,5.53
2023-01-19T18:51:14.085Z,5.75
2023-01-19T18:53:41.146Z,5.78
2023-01-19T18:56:11.036Z,15.45
2023-01-19T18:58:38.763Z,11.98
2023-01-19T19:01:20.806Z,16.98
2023-01-19T19:03:47.829Z,19.83
2023-01-19T19:06:16.739Z,17.38
2023-01-19T19:08:44.184Z,46.90
2023-01-19T19:11:14.167Z,36.38
2023-01-19T19:13:41.383Z,35.65
2023-01-19T19:16:09.916Z,20.42
2023-01-19T19:18:38.606Z,10.90
2023-01-19T19:21:11.783Z,17.45
2023-01-19T19:23:38.942Z,28.67
2023-01-19T19:26:09.625Z,23.25
2023-01-19T19:28:38.201Z,27.75
2023-01-19T19:31:11.097Z,22.75
2023-01-19T19:33:38.865Z,21.10
2023-01-19T19:36:07.190Z,16.15
2023-01-19T19:38:36.635Z,13.77
2023-01-19T19:41:08.117Z,13.93
2023-01-19T19:43:35.591Z,11.80
2023-01-19T19:46:13.198Z,9.90
2023-01-19T19:48:40.202Z,10.65
2023-01-19T19:51:18.602Z,11.50
2023-01-19T19:53:46.245Z,12.70
2023-01-19T19:56:13.838Z,15.30
2023-01-19T19:58:42.147Z,14.32
2023-01-19T20:01:10.141Z,8.45
2023-01-19T20:03:37.481Z,6.88
2023-01-19T20:06:06.750Z,6.80
2023-01-19T20:08:34.179Z,6.88
2023-01-19T20:11:06.298Z,9.35
2023-01-19T20:13:35.890Z,9.77
2023-01-19T20:16:10.234Z,9.93
2023-01-19T20:18:44.743Z,9.40
2023-01-19T20:21:17.073Z,11.75
2023-01-19T20:23:45.546Z,9.85
2023-01-19T20:26:14.522Z,10.20
2023-01-19T20:28:41.460Z,10.35
2023-01-19T20:31:19.384Z,10.93
2023-01-19T20:33:48.184Z,10.77
2023-01-19T20:36:15.504Z,10.25
2023-01-19T20:38:42.845Z,10.45
2023-01-19T20:41:12.442Z,10.73
2023-01-19T20:43:39.743Z,10.73
2023-01-19T20:46:07.109Z,11.82
2023-01-19T20:48:33.825Z,15.23
2023-01-19T20:51:09.720Z,22.75
2023-01-19T20:53:38.554Z,23.08
2023-01-19T20:56:12.152Z,21.17
2023-01-19T20:58:39.580Z,19.38
2023-01-19T21:01:15.117Z,16.52
2023-01-19T21:03:42.249Z,15.02
2023-01-19T21:06:09.531Z,13.88
2023-01-19T21:08:36.800Z,14.25
2023-01-19T21:11:03.911Z,12.43
2023-01-19T21:13:31.573Z,12.75
2023-01-19T21:15:59.064Z,12.18
2023-01-19T21:18:27.988Z,12.52
2023-01-19T21:20:57.354Z,12.75
2023-01-19T21:23:25.097Z,14.15
2023-01-19T21:25:57.632Z,14.00
2023-01-19T21:28:24.997Z,11.43
2023-01-19T21:30:53.402Z,8.45
2023-01-19T21:33:21.574Z,9.07
2023-01-19T21:35:56.895Z,8.73
2023-01-19T21:38:26.815Z,8.10
2023-01-19T21:40:54.289Z,8.60
2023-01-19T21:43:21.718Z,8.18
2023-01-19T21:45:49.106Z,7.75
2023-01-19T21:48:17.211Z,8.93
2023-01-19T21:50:44.416Z,11.18
2023-01-19T21:53:11.598Z,12.38
2023-01-19T21:55:42.812Z,12.07
2023-01-19T21:58:09.562Z,11.90
2023-01-19T22:00:36.323Z,9.85
2023-01-19T22:03:04.616Z,8.85
2023-01-19T22:05:36.696Z,8.85
2023-01-19T22:08:04.482Z,9.70
2023-01-19T22:10:31.250Z,8.52
2023-01-19T22:12:57.950Z,9.45
2023-01-19T22:15:24.738Z,8.60
2023-01-19T22:17:51.443Z,9.18
2023-01-19T22:20:18.308Z,9.20
2023-01-19T22:22:45.052Z,8.88
2023-01-19T22:25:12.078Z,10.10
2023-01-19T22:27:39.116Z,8.75
2023-01-19T22:30:06.429Z,8.68
2023-01-19T22:32:33.120Z,9.50
2023-01-19T22:34:59.916Z,10.52
2023-01-19T22:37:26.629Z,9.23
2023-01-19T22:39:53.536Z,8.43
2023-01-19T22:42:20.273Z,8.95
2023-01-19T22:44:47.045Z,8.68
2023-01-19T22:47:13.785Z,10.68
2023-01-19T22:49:40.764Z,8.27
2023-01-19T22:52:07.684Z,9.65
2023-01-19T22:54:34.489Z,8.98
2023-01-19T22:57:01.296Z,10.07
2023-01-19T22:59:28.104Z,10.52
2023-01-19T23:01:54.906Z,9.93
2023-01-19T23:04:21.706Z,9.25
2023-01-19T23:06:50.722Z,9.98
2023-01-19T23:09:17.928Z,10.00
2023-01-19T23:11:51.135Z,8.30
2023-01-19T23:14:20.150Z,8.80
2023-01-19T23:16:47.467Z,8.35
2023-01-19T23:19:14.445Z,8.75
2023-01-19T23:21:41.608Z,7.95
2023-01-19T23:24:08.979Z,8.32
2023-01-19T23:26:38.900Z,8.10
2023-01-19T23:29:08.257Z,8.38
2023-01-19T23:31:37.973Z,7.13
2023-01-19T23:34:07.493Z,7.95
2023-01-19T23:36:36.666Z,7.90
2023-01-19T23:39:18.184Z,8.52
2023-01-19T23:41:45.247Z,7.55
2023-01-19T23:44:12.191Z,8.05
2023-01-19T23:46:39.179Z,8.35
2023-01-19T23:49:06.041Z,7.45
2023-01-19T23:51:33.543Z,9.32
2023-01-19T23:54:00.773Z,8.10
2023-01-19T23:56:30.401Z,8.55
2023-01-19T23:59:06.198Z,7.45
